createdAt,value
2019-02-22T00:02:15.992Z,18.87
2019-02-22T00:04:44.811Z,18.98
2019-02-22T00:07:13.644Z,18.25
2019-02-22T00:09:49.465Z,17.27
2019-02-22T00:12:13.016Z,19.07
2019-02-22T00:14:41.863Z,16.55
2019-02-22T00:17:10.691Z,15.40
2019-02-22T00:19:39.507Z,14.75
2019-02-22T00:22:08.384Z,14.25
2019-02-22T00:24:37.254Z,13.83
2019-02-22T00:27:06.025Z,14.68
2019-02-22T00:29:34.818Z,14.30
2019-02-22T00:32:03.676Z,14.05
2019-02-22T00:34:32.505Z,14.35
2019-02-22T00:37:01.346Z,14.83
2019-02-22T00:39:30.150Z,13.25
2019-02-22T00:41:58.946Z,13.90
2019-02-22T00:44:27.831Z,13.97
2019-02-22T00:46:56.688Z,11.83
2019-02-22T00:49:25.592Z,12.25
2019-02-22T00:51:54.443Z,11.20
2019-02-22T00:54:23.307Z,11.35
2019-02-22T00:56:52.091Z,16.85
2019-02-22T00:59:20.905Z,20.45
2019-02-22T01:01:49.681Z,13.40
2019-02-22T01:04:18.527Z,16.35
2019-02-22T01:06:47.336Z,21.97
2019-02-22T01:09:16.201Z,14.05
2019-02-22T01:11:45.020Z,10.88
2019-02-22T01:14:13.834Z,10.85
2019-02-22T01:16:42.637Z,10.10
2019-02-22T01:19:11.425Z,10.55
2019-02-22T01:21:40.284Z,10.70
2019-02-22T01:24:09.158Z,9.63
2019-02-22T01:26:37.945Z,9.80
2019-02-22T01:29:06.809Z,14.53
2019-02-22T01:34:19.271Z,8.43
2019-02-22T01:36:48.099Z,8.08
2019-02-22T01:39:16.939Z,7.83
2019-02-22T01:41:45.777Z,8.38
2019-02-22T01:44:20.100Z,7.33
2019-02-22T01:46:49.056Z,6.95
2019-02-22T01:49:17.856Z,7.60
2019-02-22T01:51:46.620Z,7.78
2019-02-22T01:54:15.430Z,6.90
2019-02-22T01:56:44.237Z,9.20
2019-02-22T01:59:13.030Z,9.15
2019-02-22T02:01:41.910Z,9.90
2019-02-22T02:04:10.691Z,13.72
2019-02-22T02:06:39.485Z,9.10
2019-02-22T02:09:08.452Z,9.63
2019-02-22T02:11:37.320Z,6.75
2019-02-22T02:14:06.302Z,6.62
2019-02-22T02:16:35.121Z,7.05
2019-02-22T02:19:04.027Z,9.58
2019-02-22T02:21:32.812Z,9.68
2019-02-22T02:24:01.578Z,8.15
2019-02-22T02:26:30.385Z,7.00
2019-02-22T02:28:59.185Z,7.42
2019-02-22T02:31:28.057Z,6.90
2019-02-22T02:33:56.839Z,5.70
2019-02-22T02:36:25.710Z,4.87
2019-02-22T02:38:54.571Z,4.92
2019-02-22T02:41:23.408Z,5.05
2019-02-22T02:43:52.239Z,5.00
2019-02-22T02:46:21.076Z,4.42
2019-02-22T02:48:49.854Z,5.00
2019-02-22T02:51:18.664Z,4.50
2019-02-22T02:53:47.509Z,4.92
2019-02-22T02:56:16.288Z,4.65
2019-02-22T02:58:45.078Z,5.10
2019-02-22T03:01:13.885Z,4.37
2019-02-22T03:03:42.773Z,3.90
2019-02-22T03:06:18.814Z,4.37
2019-02-22T03:08:47.576Z,4.95
2019-02-22T03:11:20.585Z,4.97
2019-02-22T03:13:46.934Z,8.20
2019-02-22T03:16:16.044Z,4.80
2019-02-22T03:18:45.115Z,8.25
2019-02-22T03:21:13.938Z,6.75
2019-02-22T03:23:42.695Z,5.83
2019-02-22T03:26:11.489Z,4.90
2019-02-22T03:28:40.304Z,5.10
2019-02-22T03:31:09.170Z,4.10
2019-02-22T03:33:38.615Z,4.10
2019-02-22T03:36:07.489Z,3.83
2019-02-22T03:38:36.269Z,3.83
2019-02-22T03:41:05.175Z,3.60
2019-02-22T03:43:34.038Z,3.27
2019-02-22T03:46:02.900Z,3.60
2019-02-22T03:48:31.754Z,3.02
2019-02-22T03:51:00.639Z,2.72
2019-02-22T03:53:33.307Z,2.87
2019-02-22T03:56:02.125Z,2.80
2019-02-22T03:58:31.006Z,2.85
2019-02-22T04:00:59.853Z,2.80
2019-02-22T04:03:28.683Z,3.30
2019-02-22T04:05:57.605Z,3.30
2019-02-22T04:08:26.414Z,3.30
2019-02-22T04:10:55.252Z,3.80
2019-02-22T04:13:24.111Z,4.03
2019-02-22T04:15:52.907Z,3.92
2019-02-22T04:18:21.738Z,4.30
2019-02-22T04:20:51.997Z,4.85
2019-02-22T04:23:20.797Z,5.95
2019-02-22T04:25:49.656Z,5.00
2019-02-22T04:28:18.487Z,5.60
2019-02-22T04:30:47.252Z,5.53
2019-02-22T04:33:16.129Z,5.20
2019-02-22T04:35:45.018Z,5.20
2019-02-22T04:38:13.793Z,6.07
2019-02-22T04:40:42.583Z,5.95
2019-02-22T04:43:11.338Z,6.00
2019-02-22T04:45:40.225Z,6.40
2019-02-22T04:48:09.125Z,6.00
2019-02-22T04:50:38.083Z,6.30
2019-02-22T04:53:06.936Z,6.70
2019-02-22T04:55:35.787Z,7.10
2019-02-22T04:58:04.581Z,7.08
2019-02-22T05:00:33.381Z,7.60
2019-02-22T05:03:02.224Z,9.10
2019-02-22T05:05:31.041Z,9.03
2019-02-22T05:07:59.903Z,9.40
2019-02-22T05:10:28.690Z,9.13
2019-02-22T05:12:57.532Z,9.90
2019-02-22T05:15:26.394Z,10.20
2019-02-22T05:17:55.200Z,10.73
2019-02-22T05:20:24.035Z,10.65
2019-02-22T05:23:03.307Z,10.30
2019-02-22T05:25:23.482Z,12.53
2019-02-22T05:27:52.260Z,13.88
2019-02-22T05:30:21.038Z,13.78
2019-02-22T05:32:49.969Z,15.20
2019-02-22T05:35:18.859Z,15.70
2019-02-22T05:37:47.777Z,14.73
2019-02-22T05:40:16.765Z,15.53
2019-02-22T05:42:45.631Z,15.00
2019-02-22T05:45:14.483Z,16.37
2019-02-22T05:47:43.292Z,16.75
2019-02-22T05:50:12.139Z,16.07
2019-02-22T05:52:40.928Z,17.23
2019-02-22T05:55:09.725Z,16.73
2019-02-22T05:57:38.577Z,16.55
2019-02-22T06:00:07.664Z,16.30
2019-02-22T06:02:36.554Z,16.80
2019-02-22T06:05:05.765Z,14.33
2019-02-22T06:07:34.605Z,15.08
2019-02-22T06:10:03.619Z,13.60
2019-02-22T06:12:34.909Z,14.33
2019-02-22T06:15:03.151Z,14.70
2019-02-22T06:17:32.013Z,14.18
2019-02-22T06:20:00.787Z,12.98
2019-02-22T06:22:30.128Z,12.65
2019-02-22T06:24:59.085Z,11.15
2019-02-22T06:27:27.889Z,9.73
2019-02-22T06:29:56.701Z,10.65
2019-02-22T06:32:28.186Z,8.75
2019-02-22T06:34:57.111Z,9.50
2019-02-22T06:37:26.043Z,8.00
2019-02-22T06:39:54.919Z,7.35
2019-02-22T06:42:23.834Z,6.83
2019-02-22T06:44:52.711Z,6.53
2019-02-22T06:47:22.872Z,8.20
2019-02-22T06:49:51.909Z,5.10
2019-02-22T06:52:20.800Z,5.08
2019-02-22T06:54:49.654Z,5.70
2019-02-22T06:57:18.439Z,5.30
2019-02-22T06:59:47.325Z,5.47
2019-02-22T07:02:16.126Z,5.90
2019-02-22T07:04:44.945Z,5.03
2019-02-22T07:07:13.758Z,4.85
2019-02-22T07:09:42.608Z,5.53
2019-02-22T07:12:15.579Z,4.87
2019-02-22T07:14:44.386Z,4.78
2019-02-22T07:17:13.365Z,4.00
2019-02-22T07:19:42.219Z,3.45
2019-02-22T07:22:11.085Z,3.40
2019-02-22T07:24:39.910Z,3.98
2019-02-22T07:27:08.702Z,2.90
2019-02-22T07:29:37.630Z,2.35
2019-02-22T07:32:07.006Z,2.20
2019-02-22T07:34:35.832Z,3.77
2019-02-22T07:37:04.648Z,2.10
2019-02-22T07:39:33.467Z,2.20
2019-02-22T07:42:02.336Z,2.45
2019-02-22T07:44:31.512Z,2.22
2019-02-22T07:47:00.355Z,2.95
2019-02-22T07:49:29.215Z,2.70
2019-02-22T07:51:58.380Z,2.70
2019-02-22T07:54:27.235Z,2.80
2019-02-22T07:56:56.101Z,2.27
2019-02-22T07:59:25.010Z,2.80
2019-02-22T08:01:53.839Z,2.35
2019-02-22T08:04:22.792Z,3.10
2019-02-22T08:06:51.867Z,1.95
2019-02-22T08:09:20.626Z,2.60
2019-02-22T08:11:49.507Z,2.70
2019-02-22T08:14:18.261Z,2.42
2019-02-22T08:16:47.044Z,2.60
2019-02-22T08:19:15.884Z,3.00
2019-02-22T08:21:44.721Z,2.80
2019-02-22T08:24:13.584Z,2.52
2019-02-22T08:26:42.403Z,2.50
2019-02-22T08:29:11.324Z,2.30
2019-02-22T08:31:40.130Z,2.30
2019-02-22T08:34:09.057Z,3.30
2019-02-22T08:36:37.908Z,3.40
2019-02-22T08:39:06.762Z,3.00
2019-02-22T08:41:35.647Z,3.20
2019-02-22T08:44:04.800Z,2.80
2019-02-22T08:46:33.663Z,2.45
2019-02-22T08:49:02.598Z,2.20
2019-02-22T08:51:31.431Z,2.50
2019-02-22T08:54:00.287Z,3.50
2019-02-22T08:56:29.201Z,2.00
2019-02-22T08:58:58.138Z,2.40
2019-02-22T09:01:26.979Z,1.95
2019-02-22T09:03:55.773Z,2.62
2019-02-22T09:06:24.747Z,1.62
2019-02-22T09:08:53.644Z,1.90
2019-02-22T09:11:23.722Z,2.50
2019-02-22T09:13:52.598Z,2.15
2019-02-22T09:16:21.432Z,1.90
2019-02-22T09:18:50.274Z,1.87
2019-02-22T09:21:19.135Z,1.82
2019-02-22T09:23:48.055Z,2.20
2019-02-22T09:26:16.915Z,2.45
2019-02-22T09:28:45.737Z,1.60
2019-02-22T09:31:14.646Z,1.80
2019-02-22T09:33:43.500Z,2.65
2019-02-22T09:36:12.328Z,1.92
2019-02-22T09:38:41.170Z,4.15
2019-02-22T09:41:10.128Z,1.65
2019-02-22T09:43:39.065Z,2.37
2019-02-22T09:46:07.906Z,3.20
2019-02-22T09:48:36.888Z,1.70
2019-02-22T09:51:05.663Z,1.90
2019-02-22T09:53:34.489Z,2.30
2019-02-22T09:56:03.306Z,2.40
2019-02-22T09:58:32.155Z,2.40
2019-02-22T10:01:01.000Z,3.40
2019-02-22T10:03:29.753Z,2.50
2019-02-22T10:05:58.522Z,3.42
2019-02-22T10:08:27.366Z,2.35
2019-02-22T10:10:56.194Z,2.00
2019-02-22T10:13:24.999Z,2.37
2019-02-22T10:15:53.852Z,2.42
2019-02-22T10:18:22.635Z,2.08
2019-02-22T10:20:51.511Z,20.85
2019-02-22T10:23:20.305Z,1.92
2019-02-22T10:25:49.239Z,2.30
2019-02-22T10:28:18.293Z,2.00
2019-02-22T10:30:47.350Z,1.80
2019-02-22T10:33:16.217Z,2.37
2019-02-22T10:35:45.060Z,2.30
2019-02-22T10:38:13.976Z,2.90
2019-02-22T10:40:42.850Z,2.30
2019-02-22T10:43:11.689Z,2.25
2019-02-22T10:45:40.478Z,3.00
2019-02-22T10:48:09.277Z,2.42
2019-02-22T10:50:38.105Z,2.90
2019-02-22T10:53:06.974Z,2.60
2019-02-22T10:55:35.795Z,2.95
2019-02-22T10:58:04.731Z,2.52
2019-02-22T11:00:33.605Z,2.70
2019-02-22T11:03:02.443Z,3.00
2019-02-22T11:05:31.343Z,2.87
2019-02-22T11:08:00.140Z,3.10
2019-02-22T11:10:28.947Z,2.80
2019-02-22T11:12:57.899Z,2.80
2019-02-22T11:15:26.716Z,3.27
2019-02-22T11:17:55.588Z,3.70
2019-02-22T11:20:24.433Z,5.37
2019-02-22T11:22:53.310Z,3.05
2019-02-22T11:25:22.081Z,3.12
2019-02-22T11:27:51.052Z,2.45
2019-02-22T11:30:19.903Z,2.85
2019-02-22T11:32:48.678Z,3.30
2019-02-22T11:35:17.651Z,2.80
2019-02-22T11:37:46.712Z,3.52
2019-02-22T11:40:15.639Z,2.62
2019-02-22T11:42:44.423Z,2.92
2019-02-22T11:45:13.220Z,2.72
2019-02-22T11:47:42.018Z,3.12
2019-02-22T11:50:10.938Z,4.62
2019-02-22T11:52:39.870Z,3.10
2019-02-22T11:55:08.989Z,2.90
2019-02-22T11:57:40.847Z,3.98
2019-02-22T12:00:12.464Z,3.42
2019-02-22T12:02:41.385Z,2.80
2019-02-22T12:05:10.315Z,2.83
2019-02-22T12:07:39.160Z,3.40
2019-02-22T12:10:08.135Z,4.00
2019-02-22T12:12:36.993Z,3.58
2019-02-22T12:15:06.178Z,3.20
2019-02-22T12:17:35.145Z,3.12
2019-02-22T12:20:04.018Z,3.30
2019-02-22T12:22:32.792Z,3.60
2019-02-22T12:25:01.580Z,3.42
2019-02-22T12:27:30.386Z,3.05
2019-02-22T12:29:59.215Z,2.58
2019-02-22T12:32:28.093Z,2.87
2019-02-22T12:34:57.027Z,3.10
2019-02-22T12:37:25.878Z,3.35
2019-02-22T12:39:54.915Z,2.67
2019-02-22T12:42:23.728Z,2.70
2019-02-22T12:45:02.483Z,3.22
2019-02-22T12:47:23.359Z,2.90
2019-02-22T12:49:52.125Z,3.00
2019-02-22T12:52:23.852Z,3.05
2019-02-22T12:54:55.906Z,2.30
2019-02-22T12:57:34.612Z,2.98
2019-02-22T13:00:08.050Z,2.85
2019-02-22T13:03:01.266Z,3.30
2019-02-22T14:07:50.144Z,2.60
2019-02-22T14:10:19.489Z,14.20
2019-02-22T14:12:48.245Z,5.17
2019-02-22T14:15:18.818Z,3.75
2019-02-22T14:17:47.561Z,4.95
2019-02-22T14:20:16.485Z,5.85
